General Aviation Weather

Text Reports

Enter one or more of the following location identifiers separated by a space:

Zip Code, Four-Character ICAO or Three-Character IATA airport codes.

METAR - Aviation Routine Weather Report
KOCH - Nacogdoches, Texas
Updated at 8:35 PM GMT on December 22, 2014 (2:35 PM CST):
METAR KOCH 222035Z AUTO 25008G17KT 10SM BKN034 20/13 A2959 RMK AO1
TAF - Terminal Area Forecast
KOCH - Nacogdoches, Texas
Updated at 8:35 PM GMT on December 22, 2014 (2:35 PM CST):
No TAF is currently available for this location.
Decoded:
No decoded TAF is available.
PIREP - Pilot Weather Report
KOCH - Nacogdoches, Texas
Updated at 8:35 PM GMT on December 22, 2014 (2:35 PM CST):
No PIREP is currently available for this location.
AIRMET - Airmens Meteorological Information
KOCH - Nacogdoches, Texas
Updated at 8:35 PM GMT on December 22, 2014 (2:35 PM CST):
No AIRMET is currently available for this location.
SIGMET - Significant Meteorological Information
KOCH - Nacogdoches, Texas
Updated at 8:35 PM GMT on December 22, 2014 (2:35 PM CST):
No SIGMET is currently available for this location.
NOTAM - Notice to Airmen
KOCH - Nacogdoches, Texas
Updated at 8:35 PM GMT on December 22, 2014 (2:35 PM CST):
No NOTAM is currently available for this location.
Forecast Area
KOCH - Nacogdoches, Texas
Updated at 8:35 PM GMT on December 22, 2014 (2:35 PM CST):
No NOTAM is currently available for this location.
Aviation Weather Maps